sensor_id;sensor_type;location;lat;lon;timestamp;temperature;humidity
16627;DHT22;8427;52.204;7.202;2023-05-15T00:01:36;13.30;84.40
16627;DHT22;8427;52.204;7.202;2023-05-15T00:04:04;13.20;84.60
16627;DHT22;8427;52.204;7.202;2023-05-15T00:06:32;13.30;84.60
16627;DHT22;8427;52.204;7.202;2023-05-15T00:09:00;13.20;84.60
16627;DHT22;8427;52.204;7.202;2023-05-15T00:11:29;13.10;84.80
16627;DHT22;8427;52.204;7.202;2023-05-15T00:13:57;13.10;85.00
16627;DHT22;8427;52.204;7.202;2023-05-15T00:16:25;13.10;84.90
16627;DHT22;8427;52.204;7.202;2023-05-15T00:18:54;13.10;84.80
16627;DHT22;8427;52.204;7.202;2023-05-15T00:21:22;13.10;84.90
16627;DHT22;8427;52.204;7.202;2023-05-15T00:23:50;13.00;85.10
16627;DHT22;8427;52.204;7.202;2023-05-15T00:26:22;13.10;85.00
16627;DHT22;8427;52.204;7.202;2023-05-15T00:28:50;12.90;85.00
16627;DHT22;8427;52.204;7.202;2023-05-15T00:31:18;12.90;85.00
16627;DHT22;8427;52.204;7.202;2023-05-15T00:33:46;12.80;85.00
16627;DHT22;8427;52.204;7.202;2023-05-15T00:36:16;12.80;85.10
16627;DHT22;8427;52.204;7.202;2023-05-15T00:38:44;12.80;85.30
16627;DHT22;8427;52.204;7.202;2023-05-15T00:41:12;12.80;85.20
16627;DHT22;8427;52.204;7.202;2023-05-15T00:43:41;12.70;85.40
16627;DHT22;8427;52.204;7.202;2023-05-15T00:46:12;12.70;85.50
16627;DHT22;8427;52.204;7.202;2023-05-15T00:48:40;12.70;85.40
16627;DHT22;8427;52.204;7.202;2023-05-15T00:51:09;12.60;85.50
16627;DHT22;8427;52.204;7.202;2023-05-15T00:53:38;12.60;85.60
16627;DHT22;8427;52.204;7.202;2023-05-15T00:56:07;12.50;85.60
16627;DHT22;8427;52.204;7.202;2023-05-15T00:58:36;12.50;85.80
16627;DHT22;8427;52.204;7.202;2023-05-15T01:01:04;12.40;85.80
16627;DHT22;8427;52.204;7.202;2023-05-15T01:03:34;12.40;85.80
16627;DHT22;8427;52.204;7.202;2023-05-15T01:06:03;12.40;86.00
16627;DHT22;8427;52.204;7.202;2023-05-15T01:08:38;12.30;86.00
16627;DHT22;8427;52.204;7.202;2023-05-15T01:11:09;12.30;86.20
16627;DHT22;8427;52.204;7.202;2023-05-15T01:13:38;12.10;86.30
16627;DHT22;8427;52.204;7.202;2023-05-15T01:16:07;12.20;86.40
16627;DHT22;8427;52.204;7.202;2023-05-15T01:18:35;12.10;86.40
16627;DHT22;8427;52.204;7.202;2023-05-15T01:21:33;12.10;86.40
16627;DHT22;8427;52.204;7.202;2023-05-15T01:24:33;12.10;86.30
16627;DHT22;8427;52.204;7.202;2023-05-15T01:27:17;12.00;86.30
16627;DHT22;8427;52.204;7.202;2023-05-15T01:29:54;12.10;86.30
16627;DHT22;8427;52.204;7.202;2023-05-15T01:32:29;12.00;86.70
16627;DHT22;8427;52.204;7.202;2023-05-15T01:35:07;12.00;86.50
16627;DHT22;8427;52.204;7.202;2023-05-15T01:37:40;11.90;86.70
16627;DHT22;8427;52.204;7.202;2023-05-15T01:40:11;12.00;86.70
16627;DHT22;8427;52.204;7.202;2023-05-15T01:42:53;11.80;86.90
16627;DHT22;8427;52.204;7.202;2023-05-15T01:45:23;11.70;86.80
16627;DHT22;8427;52.204;7.202;2023-05-15T01:47:52;11.80;87.00
16627;DHT22;8427;52.204;7.202;2023-05-15T01:50:21;11.90;87.00
16627;DHT22;8427;52.204;7.202;2023-05-15T01:52:53;11.90;86.60
16627;DHT22;8427;52.204;7.202;2023-05-15T01:55:24;11.70;87.60
16627;DHT22;8427;52.204;7.202;2023-05-15T01:57:55;11.80;87.70
16627;DHT22;8427;52.204;7.202;2023-05-15T02:00:25;11.80;87.70
16627;DHT22;8427;52.204;7.202;2023-05-15T02:02:53;11.70;87.50
16627;DHT22;8427;52.204;7.202;2023-05-15T02:05:22;11.80;87.60
16627;DHT22;8427;52.204;7.202;2023-05-15T02:07:51;11.80;87.40
16627;DHT22;8427;52.204;7.202;2023-05-15T02:10:19;11.80;87.50
16627;DHT22;8427;52.204;7.202;2023-05-15T02:12:48;11.70;87.60
16627;DHT22;8427;52.204;7.202;2023-05-15T02:15:18;11.70;87.80
16627;DHT22;8427;52.204;7.202;2023-05-15T02:17:47;11.80;87.80
16627;DHT22;8427;52.204;7.202;2023-05-15T02:20:15;11.70;87.80
16627;DHT22;8427;52.204;7.202;2023-05-15T02:22:43;11.70;87.80
16627;DHT22;8427;52.204;7.202;2023-05-15T02:25:11;11.70;87.80
16627;DHT22;8427;52.204;7.202;2023-05-15T02:27:46;11.80;87.70
16627;DHT22;8427;52.204;7.202;2023-05-15T02:30:24;11.60;87.80
16627;DHT22;8427;52.204;7.202;2023-05-15T02:33:01;11.60;87.90
16627;DHT22;8427;52.204;7.202;2023-05-15T02:35:34;11.40;88.00
16627;DHT22;8427;52.204;7.202;2023-05-15T02:38:08;11.50;88.30
16627;DHT22;8427;52.204;7.202;2023-05-15T02:40:36;11.50;88.10
16627;DHT22;8427;52.204;7.202;2023-05-15T02:43:05;11.40;88.10
16627;DHT22;8427;52.204;7.202;2023-05-15T02:45:35;11.40;88.00
16627;DHT22;8427;52.204;7.202;2023-05-15T02:48:05;11.40;87.90
16627;DHT22;8427;52.204;7.202;2023-05-15T02:50:33;11.30;88.00
16627;DHT22;8427;52.204;7.202;2023-05-15T02:53:02;11.30;87.90
16627;DHT22;8427;52.204;7.202;2023-05-15T02:55:30;11.30;87.90
16627;DHT22;8427;52.204;7.202;2023-05-15T02:57:58;11.30;88.00
16627;DHT22;8427;52.204;7.202;2023-05-15T03:00:26;11.30;88.00
16627;DHT22;8427;52.204;7.202;2023-05-15T03:02:56;11.10;88.20
16627;DHT22;8427;52.204;7.202;2023-05-15T03:05:24;11.30;88.70
16627;DHT22;8427;52.204;7.202;2023-05-15T03:07:52;11.30;88.90
16627;DHT22;8427;52.204;7.202;2023-05-15T03:10:20;11.30;88.80
16627;DHT22;8427;52.204;7.202;2023-05-15T03:12:49;11.30;88.70
16627;DHT22;8427;52.204;7.202;2023-05-15T03:15:17;11.40;88.60
16627;DHT22;8427;52.204;7.202;2023-05-15T03:17:45;11.40;88.40
16627;DHT22;8427;52.204;7.202;2023-05-15T03:20:15;11.60;88.50
16627;DHT22;8427;52.204;7.202;2023-05-15T03:22:43;11.60;88.40
16627;DHT22;8427;52.204;7.202;2023-05-15T03:25:11;11.70;88.30
16627;DHT22;8427;52.204;7.202;2023-05-15T03:27:39;11.60;88.10
16627;DHT22;8427;52.204;7.202;2023-05-15T03:30:08;11.70;88.10
16627;DHT22;8427;52.204;7.202;2023-05-15T03:32:36;11.70;87.90
16627;DHT22;8427;52.204;7.202;2023-05-15T03:35:04;11.70;88.00
16627;DHT22;8427;52.204;7.202;2023-05-15T03:37:34;11.60;88.00
16627;DHT22;8427;52.204;7.202;2023-05-15T03:40:02;11.80;87.90
16627;DHT22;8427;52.204;7.202;2023-05-15T03:42:32;11.60;87.70
16627;DHT22;8427;52.204;7.202;2023-05-15T03:45:00;11.80;87.70
16627;DHT22;8427;52.204;7.202;2023-05-15T03:47:28;11.80;87.70
16627;DHT22;8427;52.204;7.202;2023-05-15T03:49:56;11.70;87.50
16627;DHT22;8427;52.204;7.202;2023-05-15T03:52:24;11.70;87.60
16627;DHT22;8427;52.204;7.202;2023-05-15T03:54:53;11.70;87.50
16627;DHT22;8427;52.204;7.202;2023-05-15T03:57:21;11.80;87.40
16627;DHT22;8427;52.204;7.202;2023-05-15T03:59:49;11.80;87.20
16627;DHT22;8427;52.204;7.202;2023-05-15T04:02:17;11.90;87.20
16627;DHT22;8427;52.204;7.202;2023-05-15T04:04:45;11.90;86.90
16627;DHT22;8427;52.204;7.202;2023-05-15T04:07:13;11.70;86.60
16627;DHT22;8427;52.204;7.202;2023-05-15T04:09:40;11.80;86.60
16627;DHT22;8427;52.204;7.202;2023-05-15T04:12:10;11.70;86.70
16627;DHT22;8427;52.204;7.202;2023-05-15T04:14:38;11.60;86.80
16627;DHT22;8427;52.204;7.202;2023-05-15T04:17:05;11.70;87.10
16627;DHT22;8427;52.204;7.202;2023-05-15T04:19:33;11.60;87.00
16627;DHT22;8427;52.204;7.202;2023-05-15T04:22:01;11.70;86.70
16627;DHT22;8427;52.204;7.202;2023-05-15T04:24:29;11.80;86.50
16627;DHT22;8427;52.204;7.202;2023-05-15T04:26:57;11.70;86.70
16627;DHT22;8427;52.204;7.202;2023-05-15T04:29:26;11.90;86.80
16627;DHT22;8427;52.204;7.202;2023-05-15T04:31:54;11.90;86.90
16627;DHT22;8427;52.204;7.202;2023-05-15T04:34:22;11.80;86.70
16627;DHT22;8427;52.204;7.202;2023-05-15T04:36:50;11.90;86.30
16627;DHT22;8427;52.204;7.202;2023-05-15T04:39:18;11.90;86.30
16627;DHT22;8427;52.204;7.202;2023-05-15T04:41:46;11.80;86.20
16627;DHT22;8427;52.204;7.202;2023-05-15T04:44:14;11.70;86.20
16627;DHT22;8427;52.204;7.202;2023-05-15T04:46:43;11.80;86.50
16627;DHT22;8427;52.204;7.202;2023-05-15T04:49:11;11.90;86.20
16627;DHT22;8427;52.204;7.202;2023-05-15T04:51:39;12.00;86.20
16627;DHT22;8427;52.204;7.202;2023-05-15T04:54:08;11.90;86.10
16627;DHT22;8427;52.204;7.202;2023-05-15T04:56:36;12.10;86.30
16627;DHT22;8427;52.204;7.202;2023-05-15T04:59:04;12.00;86.10
16627;DHT22;8427;52.204;7.202;2023-05-15T05:01:31;12.00;86.00
16627;DHT22;8427;52.204;7.202;2023-05-15T05:04:01;12.10;85.60
16627;DHT22;8427;52.204;7.202;2023-05-15T05:06:29;12.20;85.80
16627;DHT22;8427;52.204;7.202;2023-05-15T05:08:57;12.10;85.70
16627;DHT22;8427;52.204;7.202;2023-05-15T05:11:25;12.30;85.60
16627;DHT22;8427;52.204;7.202;2023-05-15T05:13:53;12.00;85.50
16627;DHT22;8427;52.204;7.202;2023-05-15T05:16:21;12.10;85.50
16627;DHT22;8427;52.204;7.202;2023-05-15T05:18:48;12.10;85.60
16627;DHT22;8427;52.204;7.202;2023-05-15T05:21:18;12.00;85.50
16627;DHT22;8427;52.204;7.202;2023-05-15T05:23:46;12.00;85.70
16627;DHT22;8427;52.204;7.202;2023-05-15T05:26:14;12.00;85.80
16627;DHT22;8427;52.204;7.202;2023-05-15T05:28:42;12.00;85.70
16627;DHT22;8427;52.204;7.202;2023-05-15T05:31:10;12.10;86.10
16627;DHT22;8427;52.204;7.202;2023-05-15T05:33:38;12.10;86.20
16627;DHT22;8427;52.204;7.202;2023-05-15T05:36:06;12.00;85.00
16627;DHT22;8427;52.204;7.202;2023-05-15T05:38:35;11.90;85.70
16627;DHT22;8427;52.204;7.202;2023-05-15T05:41:03;12.00;85.80
16627;DHT22;8427;52.204;7.202;2023-05-15T05:43:31;12.10;85.60
16627;DHT22;8427;52.204;7.202;2023-05-15T05:46:00;12.20;85.60
16627;DHT22;8427;52.204;7.202;2023-05-15T05:48:28;12.50;85.20
16627;DHT22;8427;52.204;7.202;2023-05-15T05:50:56;12.50;85.20
16627;DHT22;8427;52.204;7.202;2023-05-15T05:53:24;12.50;84.90
16627;DHT22;8427;52.204;7.202;2023-05-15T05:55:54;12.70;84.80
16627;DHT22;8427;52.204;7.202;2023-05-15T05:58:22;12.70;84.90
16627;DHT22;8427;52.204;7.202;2023-05-15T06:00:52;12.70;84.40
16627;DHT22;8427;52.204;7.202;2023-05-15T06:03:20;12.90;83.50
16627;DHT22;8427;52.204;7.202;2023-05-15T06:05:49;13.10;83.30
16627;DHT22;8427;52.204;7.202;2023-05-15T06:08:18;13.20;83.20
16627;DHT22;8427;52.204;7.202;2023-05-15T06:10:46;13.20;82.50
16627;DHT22;8427;52.204;7.202;2023-05-15T06:13:16;12.90;82.60
16627;DHT22;8427;52.204;7.202;2023-05-15T06:15:43;12.80;83.10
16627;DHT22;8427;52.204;7.202;2023-05-15T06:18:13;12.80;83.50
16627;DHT22;8427;52.204;7.202;2023-05-15T06:20:41;12.90;83.40
16627;DHT22;8427;52.204;7.202;2023-05-15T06:23:09;13.00;83.40
16627;DHT22;8427;52.204;7.202;2023-05-15T06:25:37;12.90;83.40
16627;DHT22;8427;52.204;7.202;2023-05-15T06:28:05;13.00;83.20
16627;DHT22;8427;52.204;7.202;2023-05-15T06:30:34;13.00;82.90
16627;DHT22;8427;52.204;7.202;2023-05-15T06:33:02;13.10;83.00
16627;DHT22;8427;52.204;7.202;2023-05-15T06:35:30;13.20;82.60
16627;DHT22;8427;52.204;7.202;2023-05-15T06:37:58;13.00;82.30
16627;DHT22;8427;52.204;7.202;2023-05-15T06:40:26;13.20;82.20
16627;DHT22;8427;52.204;7.202;2023-05-15T06:42:54;13.20;82.20
16627;DHT22;8427;52.204;7.202;2023-05-15T06:45:22;13.30;81.90
16627;DHT22;8427;52.204;7.202;2023-05-15T06:47:51;13.30;82.40
16627;DHT22;8427;52.204;7.202;2023-05-15T06:50:19;13.20;81.20
16627;DHT22;8427;52.204;7.202;2023-05-15T06:52:47;13.20;82.10
16627;DHT22;8427;52.204;7.202;2023-05-15T06:55:15;13.00;82.30
16627;DHT22;8427;52.204;7.202;2023-05-15T06:57:43;13.00;82.20
16627;DHT22;8427;52.204;7.202;2023-05-15T07:00:12;12.90;82.10
16627;DHT22;8427;52.204;7.202;2023-05-15T07:02:40;12.90;82.60
16627;DHT22;8427;52.204;7.202;2023-05-15T07:05:10;12.80;82.10
16627;DHT22;8427;52.204;7.202;2023-05-15T07:07:39;12.70;83.00
16627;DHT22;8427;52.204;7.202;2023-05-15T07:10:08;12.40;83.20
16627;DHT22;8427;52.204;7.202;2023-05-15T07:12:36;12.40;83.30
16627;DHT22;8427;52.204;7.202;2023-05-15T07:15:05;12.20;83.70
16627;DHT22;8427;52.204;7.202;2023-05-15T07:17:33;12.10;83.70
16627;DHT22;8427;52.204;7.202;2023-05-15T07:20:01;12.20;84.10
16627;DHT22;8427;52.204;7.202;2023-05-15T07:22:33;12.20;84.10
16627;DHT22;8427;52.204;7.202;2023-05-15T07:25:18;12.70;83.70
16627;DHT22;8427;52.204;7.202;2023-05-15T07:28:00;12.90;83.20
16627;DHT22;8427;52.204;7.202;2023-05-15T07:30:33;12.80;82.00
16627;DHT22;8427;52.204;7.202;2023-05-15T07:33:01;12.50;82.90
16627;DHT22;8427;52.204;7.202;2023-05-15T07:35:29;12.50;82.90
16627;DHT22;8427;52.204;7.202;2023-05-15T07:37:58;12.50;82.90
16627;DHT22;8427;52.204;7.202;2023-05-15T07:40:26;12.70;82.40
16627;DHT22;8427;52.204;7.202;2023-05-15T07:42:53;12.80;82.50
16627;DHT22;8427;52.204;7.202;2023-05-15T07:45:21;12.80;82.40
16627;DHT22;8427;52.204;7.202;2023-05-15T07:47:50;12.70;82.50
16627;DHT22;8427;52.204;7.202;2023-05-15T07:50:18;12.60;82.70
16627;DHT22;8427;52.204;7.202;2023-05-15T07:52:47;12.40;83.00
16627;DHT22;8427;52.204;7.202;2023-05-15T07:55:16;12.30;82.90
16627;DHT22;8427;52.204;7.202;2023-05-15T07:57:45;12.20;83.60
16627;DHT22;8427;52.204;7.202;2023-05-15T08:00:20;12.50;83.40
16627;DHT22;8427;52.204;7.202;2023-05-15T08:02:47;12.60;83.20
16627;DHT22;8427;52.204;7.202;2023-05-15T08:05:15;12.60;81.60
16627;DHT22;8427;52.204;7.202;2023-05-15T08:07:44;12.50;82.20
16627;DHT22;8427;52.204;7.202;2023-05-15T08:10:12;12.30;82.60
16627;DHT22;8427;52.204;7.202;2023-05-15T08:12:41;12.60;83.20
16627;DHT22;8427;52.204;7.202;2023-05-15T08:15:12;12.80;82.70
16627;DHT22;8427;52.204;7.202;2023-05-15T08:17:40;12.90;82.10
16627;DHT22;8427;52.204;7.202;2023-05-15T08:20:08;13.20;81.60
16627;DHT22;8427;52.204;7.202;2023-05-15T08:22:37;13.50;80.30
16627;DHT22;8427;52.204;7.202;2023-05-15T08:25:06;13.70;80.30
16627;DHT22;8427;52.204;7.202;2023-05-15T08:27:34;13.90;78.90
16627;DHT22;8427;52.204;7.202;2023-05-15T08:30:04;13.90;77.60
16627;DHT22;8427;52.204;7.202;2023-05-15T08:32:32;14.00;77.80
16627;DHT22;8427;52.204;7.202;2023-05-15T08:35:00;13.90;77.70
16627;DHT22;8427;52.204;7.202;2023-05-15T08:37:28;14.10;77.40
16627;DHT22;8427;52.204;7.202;2023-05-15T08:39:56;14.10;76.50
16627;DHT22;8427;52.204;7.202;2023-05-15T08:42:29;13.90;77.20
16627;DHT22;8427;52.204;7.202;2023-05-15T08:45:00;14.00;77.50
16627;DHT22;8427;52.204;7.202;2023-05-15T08:47:31;14.10;77.10
16627;DHT22;8427;52.204;7.202;2023-05-15T08:50:05;14.10;76.30
16627;DHT22;8427;52.204;7.202;2023-05-15T08:52:34;14.40;76.90
16627;DHT22;8427;52.204;7.202;2023-05-15T08:55:02;14.30;75.40
16627;DHT22;8427;52.204;7.202;2023-05-15T08:57:32;14.30;75.00
16627;DHT22;8427;52.204;7.202;2023-05-15T09:00:00;14.60;75.60
16627;DHT22;8427;52.204;7.202;2023-05-15T09:02:34;14.90;75.00
16627;DHT22;8427;52.204;7.202;2023-05-15T09:05:02;15.10;72.70
16627;DHT22;8427;52.204;7.202;2023-05-15T09:07:30;15.40;74.10
16627;DHT22;8427;52.204;7.202;2023-05-15T09:10:00;15.50;71.30
16627;DHT22;8427;52.204;7.202;2023-05-15T09:12:30;15.60;70.40
16627;DHT22;8427;52.204;7.202;2023-05-15T09:15:17;15.60;72.00
16627;DHT22;8427;52.204;7.202;2023-05-15T09:17:49;15.60;71.90
16627;DHT22;8427;52.204;7.202;2023-05-15T09:20:24;15.70;69.50
16627;DHT22;8427;52.204;7.202;2023-05-15T09:22:53;15.60;69.10
16627;DHT22;8427;52.204;7.202;2023-05-15T09:25:35;15.50;70.90
16627;DHT22;8427;52.204;7.202;2023-05-15T09:28:09;15.50;70.10
16627;DHT22;8427;52.204;7.202;2023-05-15T09:30:38;15.30;71.80
16627;DHT22;8427;52.204;7.202;2023-05-15T09:33:09;15.30;72.40
16627;DHT22;8427;52.204;7.202;2023-05-15T09:35:38;15.40;70.90
16627;DHT22;8427;52.204;7.202;2023-05-15T09:38:10;15.30;71.20
16627;DHT22;8427;52.204;7.202;2023-05-15T09:40:39;15.20;72.20
16627;DHT22;8427;52.204;7.202;2023-05-15T09:43:09;15.20;71.80
16627;DHT22;8427;52.204;7.202;2023-05-15T09:45:37;15.50;72.90
16627;DHT22;8427;52.204;7.202;2023-05-15T09:48:06;15.60;72.70
16627;DHT22;8427;52.204;7.202;2023-05-15T09:50:38;15.90;69.10
16627;DHT22;8427;52.204;7.202;2023-05-15T09:53:10;16.10;69.60
16627;DHT22;8427;52.204;7.202;2023-05-15T09:55:40;16.40;69.40
16627;DHT22;8427;52.204;7.202;2023-05-15T09:58:09;16.60;66.30
16627;DHT22;8427;52.204;7.202;2023-05-15T10:00:38;16.80;66.30
16627;DHT22;8427;52.204;7.202;2023-05-15T10:03:15;17.00;66.80
16627;DHT22;8427;52.204;7.202;2023-05-15T10:05:45;17.30;65.30
16627;DHT22;8427;52.204;7.202;2023-05-15T10:08:13;17.70;65.10
16627;DHT22;8427;52.204;7.202;2023-05-15T10:10:42;17.80;63.60
16627;DHT22;8427;52.204;7.202;2023-05-15T10:13:10;17.90;61.50
16627;DHT22;8427;52.204;7.202;2023-05-15T10:15:38;17.50;64.20
16627;DHT22;8427;52.204;7.202;2023-05-15T10:18:06;17.90;65.90
16627;DHT22;8427;52.204;7.202;2023-05-15T10:20:36;18.10;63.70
16627;DHT22;8427;52.204;7.202;2023-05-15T10:23:07;18.10;62.20
16627;DHT22;8427;52.204;7.202;2023-05-15T10:25:40;18.20;61.70
16627;DHT22;8427;52.204;7.202;2023-05-15T10:28:09;18.20;61.50
16627;DHT22;8427;52.204;7.202;2023-05-15T10:30:38;18.30;62.00
16627;DHT22;8427;52.204;7.202;2023-05-15T10:33:06;18.30;61.50
16627;DHT22;8427;52.204;7.202;2023-05-15T10:35:35;18.30;58.30
16627;DHT22;8427;52.204;7.202;2023-05-15T10:38:06;18.30;58.10
16627;DHT22;8427;52.204;7.202;2023-05-15T10:40:36;18.40;59.10
16627;DHT22;8427;52.204;7.202;2023-05-15T10:43:04;18.40;59.00
16627;DHT22;8427;52.204;7.202;2023-05-15T10:45:34;18.40;57.60
16627;DHT22;8427;52.204;7.202;2023-05-15T10:48:03;18.50;57.90
16627;DHT22;8427;52.204;7.202;2023-05-15T10:50:35;18.70;58.80
16627;DHT22;8427;52.204;7.202;2023-05-15T10:53:03;18.70;55.90
16627;DHT22;8427;52.204;7.202;2023-05-15T10:55:33;18.70;56.20
16627;DHT22;8427;52.204;7.202;2023-05-15T10:58:01;18.90;56.20
16627;DHT22;8427;52.204;7.202;2023-05-15T11:00:29;18.90;57.00
16627;DHT22;8427;52.204;7.202;2023-05-15T11:02:57;19.00;52.80
16627;DHT22;8427;52.204;7.202;2023-05-15T11:05:26;19.20;56.80
16627;DHT22;8427;52.204;7.202;2023-05-15T11:08:24;19.50;53.20
16627;DHT22;8427;52.204;7.202;2023-05-15T11:10:54;19.50;52.10
16627;DHT22;8427;52.204;7.202;2023-05-15T11:13:22;19.50;53.10
16627;DHT22;8427;52.204;7.202;2023-05-15T11:15:50;19.60;50.60
16627;DHT22;8427;52.204;7.202;2023-05-15T11:18:19;19.50;49.90
16627;DHT22;8427;52.204;7.202;2023-05-15T11:21:05;19.70;52.50
16627;DHT22;8427;52.204;7.202;2023-05-15T11:23:37;19.90;51.80
16627;DHT22;8427;52.204;7.202;2023-05-15T11:26:07;19.80;52.10
16627;DHT22;8427;52.204;7.202;2023-05-15T11:28:42;20.10;51.80
16627;DHT22;8427;52.204;7.202;2023-05-15T11:31:13;20.20;49.70
16627;DHT22;8427;52.204;7.202;2023-05-15T11:33:41;20.20;58.60
16627;DHT22;8427;52.204;7.202;2023-05-15T11:36:10;20.20;49.80
16627;DHT22;8427;52.204;7.202;2023-05-15T11:38:42;20.40;47.90
16627;DHT22;8427;52.204;7.202;2023-05-15T11:41:19;20.60;48.50
16627;DHT22;8427;52.204;7.202;2023-05-15T11:43:50;20.80;53.10
16627;DHT22;8427;52.204;7.202;2023-05-15T11:46:19;20.80;46.70
16627;DHT22;8427;52.204;7.202;2023-05-15T11:48:49;20.80;47.70
16627;DHT22;8427;52.204;7.202;2023-05-15T11:51:19;20.80;49.90
16627;DHT22;8427;52.204;7.202;2023-05-15T11:53:49;21.00;46.90
16627;DHT22;8427;52.204;7.202;2023-05-15T11:56:19;21.00;43.70
16627;DHT22;8427;52.204;7.202;2023-05-15T11:58:49;20.80;43.10
16627;DHT22;8427;52.204;7.202;2023-05-15T12:01:17;20.80;43.20
16627;DHT22;8427;52.204;7.202;2023-05-15T12:03:46;20.80;43.70
16627;DHT22;8427;52.204;7.202;2023-05-15T12:06:15;20.90;44.50
16627;DHT22;8427;52.204;7.202;2023-05-15T12:08:43;21.10;44.30
16627;DHT22;8427;52.204;7.202;2023-05-15T12:11:20;21.30;47.50
16627;DHT22;8427;52.204;7.202;2023-05-15T12:13:50;21.30;43.00
16627;DHT22;8427;52.204;7.202;2023-05-15T12:16:22;21.40;44.80
16627;DHT22;8427;52.204;7.202;2023-05-15T12:18:51;21.40;44.40
16627;DHT22;8427;52.204;7.202;2023-05-15T12:21:19;21.40;45.50
16627;DHT22;8427;52.204;7.202;2023-05-15T12:23:51;21.70;47.60
16627;DHT22;8427;52.204;7.202;2023-05-15T12:26:35;21.80;44.80
16627;DHT22;8427;52.204;7.202;2023-05-15T12:29:03;21.80;45.70
16627;DHT22;8427;52.204;7.202;2023-05-15T12:31:32;22.00;44.50
16627;DHT22;8427;52.204;7.202;2023-05-15T12:34:01;21.90;44.40
16627;DHT22;8427;52.204;7.202;2023-05-15T12:36:29;21.90;43.80
16627;DHT22;8427;52.204;7.202;2023-05-15T12:38:57;21.90;43.90
16627;DHT22;8427;52.204;7.202;2023-05-15T12:41:31;21.90;41.70
16627;DHT22;8427;52.204;7.202;2023-05-15T12:44:00;21.80;43.20
16627;DHT22;8427;52.204;7.202;2023-05-15T12:46:29;22.10;42.40
16627;DHT22;8427;52.204;7.202;2023-05-15T12:48:57;22.00;43.10
16627;DHT22;8427;52.204;7.202;2023-05-15T12:51:25;21.80;46.80
16627;DHT22;8427;52.204;7.202;2023-05-15T12:53:55;21.70;45.50
16627;DHT22;8427;52.204;7.202;2023-05-15T12:56:24;21.70;47.60
16627;DHT22;8427;52.204;7.202;2023-05-15T12:58:52;21.70;43.80
16627;DHT22;8427;52.204;7.202;2023-05-15T13:01:24;21.50;43.80
16627;DHT22;8427;52.204;7.202;2023-05-15T13:03:52;21.60;43.40
16627;DHT22;8427;52.204;7.202;2023-05-15T13:06:22;21.60;46.20
16627;DHT22;8427;52.204;7.202;2023-05-15T13:08:54;21.60;44.70
16627;DHT22;8427;52.204;7.202;2023-05-15T13:11:22;21.60;45.10
16627;DHT22;8427;52.204;7.202;2023-05-15T13:13:55;21.70;47.80
16627;DHT22;8427;52.204;7.202;2023-05-15T13:16:26;21.50;43.30
16627;DHT22;8427;52.204;7.202;2023-05-15T13:18:56;21.30;44.60
16627;DHT22;8427;52.204;7.202;2023-05-15T13:21:24;21.00;46.00
16627;DHT22;8427;52.204;7.202;2023-05-15T13:23:52;21.10;47.00
16627;DHT22;8427;52.204;7.202;2023-05-15T13:26:20;21.10;46.10
16627;DHT22;8427;52.204;7.202;2023-05-15T13:28:48;20.90;45.60
16627;DHT22;8427;52.204;7.202;2023-05-15T13:31:16;20.60;47.00
16627;DHT22;8427;52.204;7.202;2023-05-15T13:33:45;20.80;48.30
16627;DHT22;8427;52.204;7.202;2023-05-15T13:36:13;21.20;52.30
16627;DHT22;8427;52.204;7.202;2023-05-15T13:38:41;21.30;46.40
16627;DHT22;8427;52.204;7.202;2023-05-15T13:41:09;21.50;50.60
16627;DHT22;8427;52.204;7.202;2023-05-15T13:43:37;21.70;47.20
16627;DHT22;8427;52.204;7.202;2023-05-15T13:46:05;21.80;44.20
16627;DHT22;8427;52.204;7.202;2023-05-15T13:48:33;21.80;46.10
16627;DHT22;8427;52.204;7.202;2023-05-15T13:51:02;22.00;49.90
16627;DHT22;8427;52.204;7.202;2023-05-15T13:53:30;22.00;47.10
16627;DHT22;8427;52.204;7.202;2023-05-15T13:55:58;22.00;46.50
16627;DHT22;8427;52.204;7.202;2023-05-15T13:58:26;22.00;46.60
16627;DHT22;8427;52.204;7.202;2023-05-15T14:00:54;21.90;45.70
16627;DHT22;8427;52.204;7.202;2023-05-15T14:03:22;21.60;44.30
16627;DHT22;8427;52.204;7.202;2023-05-15T14:05:50;21.60;48.30
16627;DHT22;8427;52.204;7.202;2023-05-15T14:08:20;21.70;46.00
16627;DHT22;8427;52.204;7.202;2023-05-15T14:10:48;21.60;42.00
16627;DHT22;8427;52.204;7.202;2023-05-15T14:13:17;21.50;44.40
16627;DHT22;8427;52.204;7.202;2023-05-15T14:15:44;21.30;43.40
16627;DHT22;8427;52.204;7.202;2023-05-15T14:18:12;21.50;48.10
16627;DHT22;8427;52.204;7.202;2023-05-15T14:20:40;21.60;43.70
16627;DHT22;8427;52.204;7.202;2023-05-15T14:23:08;21.70;46.10
16627;DHT22;8427;52.204;7.202;2023-05-15T14:25:39;21.70;44.30
16627;DHT22;8427;52.204;7.202;2023-05-15T14:28:07;21.60;42.50
16627;DHT22;8427;52.204;7.202;2023-05-15T14:30:35;21.50;40.50
16627;DHT22;8427;52.204;7.202;2023-05-15T14:33:03;21.40;42.50
16627;DHT22;8427;52.204;7.202;2023-05-15T14:35:31;21.40;42.80
16627;DHT22;8427;52.204;7.202;2023-05-15T14:37:59;21.40;43.40
16627;DHT22;8427;52.204;7.202;2023-05-15T14:40:27;21.60;45.30
16627;DHT22;8427;52.204;7.202;2023-05-15T14:42:56;21.40;42.30
16627;DHT22;8427;52.204;7.202;2023-05-15T14:45:24;21.70;49.10
16627;DHT22;8427;52.204;7.202;2023-05-15T14:47:52;21.60;44.10
16627;DHT22;8427;52.204;7.202;2023-05-15T14:50:21;21.20;45.40
16627;DHT22;8427;52.204;7.202;2023-05-15T14:52:49;21.10;45.90
16627;DHT22;8427;52.204;7.202;2023-05-15T14:55:17;21.10;47.10
16627;DHT22;8427;52.204;7.202;2023-05-15T14:57:48;21.30;48.40
16627;DHT22;8427;52.204;7.202;2023-05-15T15:00:17;21.20;43.90
16627;DHT22;8427;52.204;7.202;2023-05-15T15:02:45;21.40;46.80
16627;DHT22;8427;52.204;7.202;2023-05-15T15:05:13;21.30;42.80
16627;DHT22;8427;52.204;7.202;2023-05-15T15:07:59;21.20;48.10
16627;DHT22;8427;52.204;7.202;2023-05-15T15:10:27;21.10;44.60
16627;DHT22;8427;52.204;7.202;2023-05-15T15:12:56;21.10;43.40
16627;DHT22;8427;52.204;7.202;2023-05-15T15:15:26;21.20;45.90
16627;DHT22;8427;52.204;7.202;2023-05-15T15:17:54;21.30;43.80
16627;DHT22;8427;52.204;7.202;2023-05-15T15:20:24;21.20;40.00
16627;DHT22;8427;52.204;7.202;2023-05-15T15:22:53;20.80;41.40
16627;DHT22;8427;52.204;7.202;2023-05-15T15:25:21;20.60;44.60
16627;DHT22;8427;52.204;7.202;2023-05-15T15:27:49;20.80;45.20
16627;DHT22;8427;52.204;7.202;2023-05-15T15:30:18;21.10;44.00
16627;DHT22;8427;52.204;7.202;2023-05-15T15:32:47;20.80;44.90
16627;DHT22;8427;52.204;7.202;2023-05-15T15:35:15;20.90;45.50
16627;DHT22;8427;52.204;7.202;2023-05-15T15:37:43;21.20;50.00
16627;DHT22;8427;52.204;7.202;2023-05-15T15:40:11;21.00;47.40
16627;DHT22;8427;52.204;7.202;2023-05-15T15:42:39;20.80;48.30
16627;DHT22;8427;52.204;7.202;2023-05-15T15:45:07;20.70;51.70
16627;DHT22;8427;52.204;7.202;2023-05-15T15:47:35;21.10;51.10
16627;DHT22;8427;52.204;7.202;2023-05-15T15:50:05;20.80;51.00
16627;DHT22;8427;52.204;7.202;2023-05-15T15:52:33;20.40;52.60
16627;DHT22;8427;52.204;7.202;2023-05-15T15:55:01;20.20;53.20
16627;DHT22;8427;52.204;7.202;2023-05-15T15:57:31;20.10;52.40
16627;DHT22;8427;52.204;7.202;2023-05-15T15:59:59;19.70;52.30